createdAt,value
2018-12-27T00:05:20.064Z,-2.00
2018-12-27T00:12:03.489Z,-2.00
2018-12-27T00:18:47.724Z,-2.00
2018-12-27T00:25:32.053Z,-2.10
2018-12-27T00:32:15.733Z,-2.10
2018-12-27T00:38:59.961Z,-2.10
2018-12-27T00:45:44.586Z,-2.00
2018-12-27T00:52:28.001Z,-2.10
2018-12-27T00:59:11.790Z,-2.00
2018-12-27T01:05:55.214Z,-2.00
2018-12-27T01:12:38.645Z,-2.10
2018-12-27T01:19:22.069Z,-2.10
2018-12-27T01:26:05.509Z,-1.90
2018-12-27T01:32:48.930Z,-1.90
2018-12-27T01:39:32.465Z,-1.70
2018-12-27T01:46:15.909Z,-1.80
2018-12-27T01:52:59.349Z,-1.80
2018-12-27T01:59:42.809Z,-1.70
2018-12-27T02:06:26.241Z,-1.80
2018-12-27T02:13:09.678Z,-1.90
2018-12-27T02:19:53.133Z,-1.90
2018-12-27T02:26:36.590Z,-2.00
2018-12-27T02:33:20.042Z,-1.90
2018-12-27T02:40:03.479Z,-2.00
2018-12-27T02:46:46.981Z,-1.90
2018-12-27T02:53:30.374Z,-2.10
2018-12-27T03:00:13.909Z,-2.20
2018-12-27T03:06:57.338Z,-2.30
2018-12-27T03:13:40.774Z,-2.30
2018-12-27T03:20:24.213Z,-2.30
2018-12-27T03:27:07.645Z,-2.40
2018-12-27T03:33:52.851Z,-2.50
2018-12-27T03:40:34.563Z,-2.60
2018-12-27T03:47:18.026Z,-2.60
2018-12-27T03:54:01.461Z,-2.60
2018-12-27T04:00:44.910Z,-2.60
2018-12-27T04:07:28.397Z,-2.60
2018-12-27T04:14:11.839Z,-2.70
2018-12-27T04:20:55.279Z,-2.70
2018-12-27T04:27:38.701Z,-2.50
2018-12-27T04:34:22.130Z,-2.50
2018-12-27T04:41:05.565Z,-2.60
2018-12-27T04:47:48.988Z,-2.60
2018-12-27T04:54:32.409Z,-2.80
2018-12-27T05:01:19.187Z,-2.80
2018-12-27T05:08:02.642Z,-2.90
2018-12-27T05:14:46.072Z,-2.90
2018-12-27T05:21:29.509Z,-2.90
2018-12-27T05:28:12.950Z,-2.90
2018-12-27T05:34:56.399Z,-2.90
2018-12-27T05:41:39.829Z,-3.00
2018-12-27T05:48:23.297Z,-2.90
2018-12-27T05:55:06.745Z,-2.90
2018-12-27T06:01:50.222Z,-3.00
2018-12-27T06:08:33.741Z,-2.80
2018-12-27T06:15:17.129Z,-2.60
2018-12-27T06:22:00.567Z,-2.30
2018-12-27T06:28:44.006Z,-2.00
2018-12-27T06:35:27.433Z,-2.00
2018-12-27T06:42:10.866Z,-1.90
2018-12-27T06:48:54.294Z,-2.00
2018-12-27T06:55:37.725Z,-2.00
2018-12-27T07:02:21.178Z,-2.10
2018-12-27T07:09:07.121Z,-2.30
2018-12-27T07:15:50.557Z,-2.30
2018-12-27T07:22:33.989Z,-2.50
2018-12-27T07:29:17.498Z,-2.60
2018-12-27T07:36:00.940Z,-2.60
2018-12-27T07:42:44.369Z,-2.40
2018-12-27T07:49:27.801Z,-2.30
2018-12-27T07:56:11.269Z,-2.10
2018-12-27T08:02:54.721Z,-1.80
2018-12-27T08:09:38.162Z,-1.50
2018-12-27T08:16:21.797Z,-0.90
2018-12-27T08:23:05.265Z,1.00
2018-12-27T08:29:48.697Z,2.30
2018-12-27T08:36:32.130Z,3.50
2018-12-27T08:43:15.561Z,3.50
2018-12-27T08:49:58.990Z,2.90
2018-12-27T08:56:42.449Z,2.50
2018-12-27T09:03:25.889Z,2.40
2018-12-27T09:10:09.313Z,2.50
2018-12-27T09:16:52.746Z,5.30
2018-12-27T09:23:36.221Z,5.60
2018-12-27T09:30:19.645Z,3.70
2018-12-27T09:37:03.065Z,3.10
2018-12-27T09:43:46.873Z,2.40
2018-12-27T09:50:30.449Z,2.00
2018-12-27T09:57:13.913Z,2.10
2018-12-27T10:03:57.342Z,2.40
2018-12-27T10:10:40.809Z,3.10
2018-12-27T10:17:24.249Z,5.70
2018-12-27T10:24:07.668Z,7.60
2018-12-27T10:30:51.102Z,6.20
2018-12-27T10:37:34.544Z,5.50
2018-12-27T10:44:17.974Z,5.30
2018-12-27T10:51:01.429Z,4.90
2018-12-27T10:57:44.881Z,4.40
2018-12-27T11:04:28.322Z,4.40
2018-12-27T11:11:11.749Z,4.30
2018-12-27T11:24:51.089Z,4.80
2018-12-27T11:31:34.566Z,5.10
2018-12-27T11:38:18.042Z,5.40
2018-12-27T11:45:01.517Z,5.60
2018-12-27T11:51:44.977Z,5.80
2018-12-27T11:58:28.445Z,5.80
2018-12-27T12:05:11.951Z,5.50
2018-12-27T12:11:55.425Z,5.20
2018-12-27T12:18:38.889Z,4.80
2018-12-27T12:25:22.369Z,4.60
2018-12-27T12:32:05.824Z,4.70
2018-12-27T12:38:49.309Z,4.60
2018-12-27T12:45:32.761Z,4.40
2018-12-27T12:52:16.234Z,4.20
2018-12-27T12:58:59.697Z,4.20
2018-12-27T13:05:43.172Z,4.50
2018-12-27T13:12:26.634Z,4.70
2018-12-27T13:19:10.105Z,4.80
2018-12-27T13:25:53.572Z,4.70
2018-12-27T13:32:37.039Z,4.40
2018-12-27T13:39:20.506Z,4.30
2018-12-27T13:46:03.996Z,4.10
2018-12-27T13:52:54.051Z,3.80
2018-12-27T13:59:37.506Z,3.70
2018-12-27T14:06:20.973Z,3.60
2018-12-27T14:13:04.443Z,3.50
2018-12-27T14:19:47.913Z,3.50
2018-12-27T14:26:31.395Z,3.50
2018-12-27T14:33:14.874Z,3.40
2018-12-27T14:39:58.343Z,3.30
2018-12-27T14:46:41.846Z,3.20
2018-12-27T14:53:25.394Z,3.10
2018-12-27T15:00:10.607Z,2.90
2018-12-27T15:06:54.110Z,2.70
2018-12-27T15:13:37.576Z,2.60
2018-12-27T15:20:21.053Z,2.50
2018-12-27T15:27:04.505Z,2.30
2018-12-27T15:33:48.166Z,2.00
2018-12-27T15:40:31.651Z,1.70
2018-12-27T15:47:15.130Z,1.40
2018-12-27T15:53:58.609Z,1.20
2018-12-27T16:00:42.417Z,1.00
2018-12-27T16:07:25.910Z,0.80
2018-12-27T16:14:09.373Z,0.70
2018-12-27T16:20:52.849Z,0.60
2018-12-27T16:27:36.305Z,0.50
2018-12-27T16:34:19.778Z,0.50
2018-12-27T16:41:03.257Z,0.50
2018-12-27T16:47:46.722Z,0.40
2018-12-27T16:54:30.190Z,0.30
2018-12-27T17:01:13.719Z,0.20
2018-12-27T17:07:57.202Z,0.10
2018-12-27T17:14:40.690Z,0.00
2018-12-27T17:21:24.157Z,-0.10
2018-12-27T17:28:07.666Z,-0.20
2018-12-27T17:34:51.142Z,-0.10
2018-12-27T17:41:34.609Z,-0.20
2018-12-27T17:48:18.109Z,-0.40
2018-12-27T17:55:01.584Z,-0.50
2018-12-27T18:01:45.051Z,-0.70
2018-12-27T18:08:28.542Z,-0.70
2018-12-27T18:15:12.016Z,-0.70
2018-12-27T18:21:55.486Z,-0.80
2018-12-27T18:28:38.957Z,-0.90
2018-12-27T18:35:22.415Z,-0.80
2018-12-27T18:42:05.884Z,-0.80
2018-12-27T18:48:49.364Z,-0.80
2018-12-27T18:55:32.845Z,-0.80
2018-12-27T19:02:16.306Z,-0.80
2018-12-27T19:08:59.811Z,-0.80
2018-12-27T19:15:52.876Z,-0.80
2018-12-27T19:22:48.575Z,-0.80
2018-12-27T19:29:32.050Z,-0.80
2018-12-27T19:36:15.510Z,-0.70
2018-12-27T19:42:58.981Z,-0.60
2018-12-27T19:49:42.478Z,-0.50
2018-12-27T19:56:25.933Z,-0.40
2018-12-27T20:03:09.401Z,-0.40
2018-12-27T20:09:52.873Z,-0.40
2018-12-27T20:16:36.334Z,-0.40
2018-12-27T20:23:19.789Z,-0.30
2018-12-27T20:30:03.247Z,-0.30
2018-12-27T20:36:46.729Z,-0.30
2018-12-27T20:43:30.173Z,-0.30
2018-12-27T20:50:13.645Z,-0.20
2018-12-27T20:56:57.158Z,-0.10
2018-12-27T21:03:40.608Z,0.00
2018-12-27T21:10:24.323Z,0.00
2018-12-27T21:17:08.562Z,0.10
2018-12-27T21:23:52.665Z,0.20
2018-12-27T21:30:36.126Z,0.10
2018-12-27T21:37:20.133Z,-0.10
2018-12-27T21:44:03.895Z,-0.30
2018-12-27T21:50:48.090Z,-0.50
2018-12-27T21:57:32.207Z,-0.70
2018-12-27T22:04:16.365Z,-0.80
2018-12-27T22:11:00.663Z,-0.90
2018-12-27T22:17:44.818Z,-1.00
2018-12-27T22:24:28.428Z,-0.90
2018-12-27T22:31:11.885Z,-0.80
2018-12-27T22:37:55.344Z,-0.80
2018-12-27T22:44:38.813Z,-0.80
2018-12-27T22:51:22.293Z,-0.90
2018-12-27T22:58:05.821Z,-0.90
2018-12-27T23:04:50.021Z,-0.90
2018-12-27T23:11:33.725Z,-0.90
2018-12-27T23:18:17.181Z,-0.80
2018-12-27T23:25:00.630Z,-0.80
2018-12-27T23:31:44.795Z,-0.80
2018-12-27T23:38:28.639Z,-0.70
2018-12-27T23:45:12.102Z,-0.70
2018-12-27T23:51:55.569Z,-0.70
2018-12-27T23:58:39.022Z,-0.70
